Airfield :
LOGIN :

Register | Disclaimer

   EN    FR    IT 

 










Legend :    VFR   Marginal VFR   IFR   Intensive IFR   Very Intensive IFR
Visi :
Ceiling :
>= 8 km
>= 3000ft
5 to 8 km
1000 to 3000 ft
1500m to 5 km
500 to 1000 ft
800 to 1500m
200 to 500 ft
< 800m
< 200 ft
Symbols :   Thunderstorms  Fog  Heavy snow  Heavy precipitations  Wind > 20 kt
SIGMETs :     Misc.  Thunderstorms  Icing  Turbulence  Mountain Waves  Volcanic Ashes







- Airport Elevation : 13 ft
- IATA code : OST


EBOS - Oostend bruges Int.

CURRENT METAR :
  • 300050Z 26007KT 210V290 9000 FEW004 BKN013 17/15 Q1013 NOSIG

EXPIRED METARs :
  • 300020Z 17004KT 9000 FEW014 16/14 Q1013 NOSIG
  • 292350Z 17005KT 9000 NSC 16/14 Q1013 NOSIG
  • 292320Z 19004KT 160V220 8000 NSC 16/14 Q1012 NOSIG
  • 292250Z VRB02KT 8000 NSC 16/14 Q1013 NOSIG
  • 292220Z 24004KT 8000 NSC 15/13 Q1012 NOSIG

TAF TAF EBOS
Valid from the 30 at 00:00 until the 31 at 06:00 UTC


292300Z 3000/3106 VRB03KT 8000 FEW040
PROB30
TEMPO 3000/3001 4000 SHRA
BECMG 3001/3003 24010KT
TEMPO 3001/3007 4000 BR BKN007
PROB30
TEMPO 3002/3005 2500 BR BKN004
BECMG 3102/3104 30010KT
No reported NOTAMs for that airfield.



MET'MAP, your aeronautical weather chart ! - Copyright ORBIFLY December 2007 - Disclaimer

ORBIFLY MET'MAP TEAM :

Programming & Development : Alexandra Zaïnal
Concept & Development : Baudouin d'Aumeries
Co-Development & Prog : Marc-Olivier Méhu
Technical & hardware support : Manuel Goepfert

Contact : metmap@orbifly.com




SOURCES & CREDITS :

   NOAA